createdAt,value
2023-05-14T05:30:37.005Z,82.20
2023-05-14T05:33:38.917Z,82.10
2023-05-14T05:36:40.689Z,82.10
2023-05-14T05:39:42.679Z,82.30
2023-05-14T05:42:44.414Z,82.40
2023-05-14T05:45:46.209Z,82.30
2023-05-14T05:48:47.852Z,82.20
2023-05-14T05:51:49.498Z,82.20
2023-05-14T05:54:51.347Z,82.10
2023-05-14T05:57:53.009Z,82.20
2023-05-14T06:00:55.193Z,82.10
2023-05-14T06:03:57.002Z,82.10
2023-05-14T06:06:58.716Z,82.00
2023-05-14T06:10:00.735Z,81.90
2023-05-14T06:13:02.388Z,81.70
2023-05-14T06:16:04.197Z,81.60
2023-05-14T06:19:08.374Z,81.10
2023-05-14T06:22:10.281Z,81.10
2023-05-14T06:25:12.088Z,81.40
2023-05-14T06:28:13.745Z,81.40
2023-05-14T06:31:15.584Z,81.50
2023-05-14T06:34:17.266Z,81.50
2023-05-14T06:37:18.945Z,81.50
2023-05-14T06:40:21.236Z,81.20
2023-05-14T06:43:23.066Z,80.70
2023-05-14T06:46:24.701Z,80.30
2023-05-14T06:50:09.450Z,80.10
2023-05-14T06:53:12.480Z,80.10
2023-05-14T06:56:14.722Z,80.20
2023-05-14T06:59:16.681Z,80.00
2023-05-14T07:02:18.348Z,79.90
2023-05-14T07:05:20.042Z,79.60
2023-05-14T07:08:21.731Z,79.50
2023-05-14T07:11:23.587Z,79.20
2023-05-14T07:14:25.346Z,79.50
2023-05-14T07:17:27.165Z,79.60
2023-05-14T07:20:29.185Z,79.10
2023-05-14T07:23:30.813Z,78.70
2023-05-14T07:26:32.555Z,78.50
2023-05-14T07:29:35.111Z,78.40
2023-05-14T07:32:36.848Z,78.40
2023-05-14T07:35:38.530Z,78.20
2023-05-14T07:38:40.445Z,78.30
2023-05-14T07:41:42.231Z,78.30
2023-05-14T07:44:43.884Z,78.50
2023-05-14T07:47:45.743Z,78.50
2023-05-14T07:50:49.350Z,78.40
2023-05-14T07:53:51.266Z,78.20
2023-05-14T07:56:52.946Z,77.60
2023-05-14T07:59:54.936Z,76.80
2023-05-14T08:02:56.899Z,76.20
2023-05-14T08:05:58.698Z,76.20
2023-05-14T08:09:00.725Z,76.10
2023-05-14T08:12:02.461Z,76.10
2023-05-14T08:15:04.610Z,76.30
2023-05-14T08:18:06.362Z,76.00
2023-05-14T08:21:09.169Z,75.60
2023-05-14T08:24:11.388Z,75.00
2023-05-14T08:27:13.081Z,74.60
2023-05-14T08:30:15.289Z,74.40
2023-05-14T08:33:18.100Z,74.10
2023-05-14T08:36:19.773Z,74.50
2023-05-14T08:39:21.607Z,74.30
2023-05-14T08:42:23.997Z,73.50
2023-05-14T08:45:33.992Z,72.40
2023-05-14T08:48:36.133Z,71.60
2023-05-14T08:51:38.940Z,71.80
2023-05-14T08:54:40.762Z,71.90
2023-05-14T08:57:42.493Z,71.80
2023-05-14T09:00:44.499Z,71.50
2023-05-14T09:03:46.207Z,71.80
2023-05-14T09:06:49.591Z,71.80
2023-05-14T09:09:55.793Z,71.00
2023-05-14T09:12:57.520Z,70.10
2023-05-14T09:15:59.254Z,69.40
2023-05-14T09:19:01.310Z,69.10
2023-05-14T09:22:02.996Z,69.70
2023-05-14T09:25:09.606Z,70.30
2023-05-14T09:28:11.438Z,70.20
2023-05-14T09:31:13.415Z,70.20
2023-05-14T09:34:33.924Z,70.10
2023-05-14T09:37:41.745Z,69.70
2023-05-14T09:40:43.714Z,69.50
2023-05-14T09:43:45.367Z,69.40
2023-05-14T09:46:47.380Z,69.40
2023-05-14T09:49:50.715Z,69.00
2023-05-14T09:52:54.356Z,68.70
2023-05-14T09:55:56.050Z,68.70
2023-05-14T09:58:59.022Z,68.50
2023-05-14T10:02:00.828Z,68.20
2023-05-14T10:05:04.098Z,67.90
2023-05-14T10:08:26.725Z,67.70
2023-05-14T10:11:32.417Z,68.00
2023-05-14T10:14:39.074Z,68.00
2023-05-14T10:17:41.531Z,67.70
2023-05-14T10:20:43.296Z,67.20
2023-05-14T10:23:45.053Z,66.90
2023-05-14T10:26:46.841Z,66.60
2023-05-14T10:29:54.664Z,66.20
2023-05-14T10:33:09.524Z,65.90
2023-05-14T10:36:11.241Z,65.60
2023-05-14T10:39:15.164Z,65.80
2023-05-14T10:42:21.774Z,65.60
2023-05-14T10:45:23.575Z,65.30
2023-05-14T10:48:25.478Z,64.90
2023-05-14T10:51:27.421Z,65.00
2023-05-14T10:54:29.253Z,65.00
2023-05-14T10:57:31.851Z,64.90
2023-05-14T11:00:34.817Z,64.70
2023-05-14T11:03:45.214Z,64.40
2023-05-14T11:06:47.432Z,63.90
2023-05-14T11:09:51.565Z,63.50
2023-05-14T11:12:53.245Z,63.20
2023-05-14T11:15:55.697Z,63.00
2023-05-14T11:19:04.538Z,62.90
2023-05-14T11:22:07.900Z,62.90
2023-05-14T11:25:10.087Z,62.70
2023-05-14T11:28:11.790Z,62.50
2023-05-14T11:31:13.482Z,62.60
2023-05-14T11:34:15.310Z,62.50
2023-05-14T11:37:17.068Z,62.30
2023-05-14T11:40:20.169Z,62.20
2023-05-14T11:43:23.803Z,62.10
2023-05-14T11:46:26.222Z,61.80
2023-05-14T11:49:29.230Z,61.60
2023-05-14T11:52:31.140Z,61.40
2023-05-14T11:55:36.177Z,61.10
2023-05-14T11:58:37.876Z,60.90
2023-05-14T12:01:40.818Z,60.70
2023-05-14T12:04:43.946Z,60.50
2023-05-14T12:07:46.269Z,60.40
2023-05-14T12:10:49.353Z,60.10
2023-05-14T12:13:51.186Z,60.10
2023-05-14T12:16:52.948Z,60.10
2023-05-14T12:19:57.001Z,60.00
2023-05-14T12:22:58.702Z,59.70
2023-05-14T12:26:07.684Z,59.70
2023-05-14T12:29:12.743Z,59.60
2023-05-14T12:32:14.686Z,59.30
2023-05-14T12:35:16.500Z,58.90
2023-05-14T12:38:18.192Z,58.70
2023-05-14T12:41:21.202Z,58.50
2023-05-14T12:44:22.818Z,58.30
2023-05-14T12:47:24.653Z,58.00
2023-05-14T12:50:27.001Z,57.60
2023-05-14T12:53:28.865Z,57.30
2023-05-14T12:56:32.027Z,56.90
2023-05-14T12:59:33.791Z,56.40
2023-05-14T13:02:42.914Z,56.20
2023-05-14T13:05:45.261Z,55.90
2023-05-14T13:08:47.057Z,55.40
2023-05-14T13:11:48.734Z,55.00
2023-05-14T13:14:50.729Z,54.70
2023-05-14T13:17:52.593Z,54.50
2023-05-14T13:20:56.659Z,54.30
2023-05-14T13:23:58.724Z,53.90
2023-05-14T13:27:00.657Z,53.70
2023-05-14T13:30:03.092Z,52.90
2023-05-14T13:33:05.440Z,52.40
2023-05-14T13:36:08.144Z,51.90
2023-05-14T13:39:14.308Z,51.20
2023-05-14T13:42:16.330Z,51.20
2023-05-14T13:45:18.289Z,50.70
2023-05-14T13:49:27.142Z,49.50
2023-05-14T13:52:25.052Z,49.20
2023-05-14T13:55:26.693Z,48.90
2023-05-14T13:58:28.481Z,48.20
2023-05-14T14:01:33.138Z,47.90
2023-05-14T14:04:34.896Z,47.40
2023-05-14T14:07:36.608Z,47.40
2023-05-14T14:10:40.794Z,46.90
2023-05-14T14:13:43.719Z,46.20
2023-05-14T14:16:46.723Z,46.00
2023-05-14T14:19:48.550Z,45.80
2023-05-14T14:22:50.214Z,45.70
2023-05-14T14:25:51.886Z,45.50
2023-05-14T14:28:54.019Z,45.50
2023-05-14T14:31:55.923Z,45.50
2023-05-14T14:34:57.660Z,45.50
2023-05-14T14:37:59.325Z,45.40
2023-05-14T14:41:03.188Z,45.20
2023-05-14T14:44:05.510Z,45.10
2023-05-14T14:47:07.240Z,45.00
2023-05-14T14:50:09.311Z,44.70
2023-05-14T14:53:12.101Z,44.70
2023-05-14T14:56:13.754Z,44.70
2023-05-14T14:59:15.591Z,44.70
2023-05-14T15:02:17.296Z,44.70
2023-05-14T15:05:19.051Z,44.60
2023-05-14T15:08:24.017Z,44.60
2023-05-14T15:11:26.053Z,44.70
2023-05-14T15:14:27.742Z,44.70
2023-05-14T15:17:29.448Z,44.40
2023-05-14T15:20:31.452Z,44.00
2023-05-14T15:23:33.089Z,43.90
2023-05-14T15:26:34.824Z,44.00
2023-05-14T15:29:36.689Z,44.10
2023-05-14T15:32:38.402Z,44.10
2023-05-14T15:35:40.144Z,44.00
2023-05-14T15:38:42.420Z,44.00
2023-05-14T15:41:44.173Z,44.00
2023-05-14T15:44:46.467Z,44.00
2023-05-14T15:47:48.266Z,44.20
2023-05-14T15:50:50.115Z,44.30
2023-05-14T15:53:54.046Z,44.30
2023-05-14T15:56:56.452Z,44.20
2023-05-14T15:59:58.527Z,44.30
2023-05-14T16:03:00.417Z,44.30
2023-05-14T16:06:02.197Z,44.10
2023-05-14T16:09:04.721Z,43.90
2023-05-14T16:12:07.025Z,43.80
2023-05-14T16:15:09.190Z,43.90
2023-05-14T16:18:10.963Z,43.90
2023-05-14T16:21:13.273Z,43.30
2023-05-14T16:24:14.930Z,42.80
2023-05-14T16:27:18.827Z,42.60
2023-05-14T16:30:20.497Z,42.60
2023-05-14T16:33:22.162Z,42.70
2023-05-14T16:36:27.055Z,43.10
2023-05-14T16:39:30.069Z,43.30
2023-05-14T16:42:31.730Z,43.70
2023-05-14T16:45:34.850Z,44.00
2023-05-14T16:48:36.530Z,44.30
2023-05-14T16:51:42.936Z,44.60
2023-05-14T16:54:44.591Z,44.80
2023-05-14T16:57:46.285Z,44.90
2023-05-14T17:00:48.251Z,45.10
2023-05-14T17:03:49.896Z,45.20
2023-05-14T17:06:51.606Z,45.30
2023-05-14T17:09:58.014Z,45.50
2023-05-14T17:13:00.154Z,45.70
2023-05-14T17:16:02.075Z,45.90
2023-05-14T17:19:04.718Z,46.20
2023-05-14T17:22:07.263Z,46.70
2023-05-14T17:25:09.429Z,47.00
2023-05-14T17:28:11.105Z,47.20
2023-05-14T17:31:12.793Z,47.20
2023-05-14T17:34:14.477Z,47.20
2023-05-14T17:37:16.415Z,47.50
2023-05-14T17:40:18.420Z,47.70
2023-05-14T17:43:20.155Z,47.90
2023-05-14T17:46:21.850Z,48.00
2023-05-14T17:49:23.625Z,48.20
2023-05-14T17:52:25.318Z,48.30
2023-05-14T17:55:26.990Z,48.50
2023-05-14T17:58:28.706Z,48.80
2023-05-14T18:01:30.938Z,49.10
2023-05-14T18:04:32.733Z,49.40
2023-05-14T18:07:35.193Z,49.80
2023-05-14T18:10:37.422Z,50.00
2023-05-14T18:13:39.086Z,50.30
2023-05-14T18:16:41.077Z,51.10
2023-05-14T18:19:43.069Z,51.90
2023-05-14T18:22:44.745Z,52.80
2023-05-14T18:25:49.629Z,53.70
2023-05-14T18:28:51.495Z,54.50
2023-05-14T18:31:53.161Z,55.30
2023-05-14T18:34:54.896Z,55.90
2023-05-14T18:37:56.540Z,56.60
2023-05-14T18:40:58.496Z,57.30
2023-05-14T18:44:01.687Z,57.80
2023-05-14T18:47:03.492Z,58.30
2023-05-14T18:50:08.988Z,58.70
2023-05-14T18:53:10.681Z,59.20
2023-05-14T18:56:12.534Z,59.80
2023-05-14T18:59:14.316Z,60.40
2023-05-14T19:02:16.191Z,60.80
2023-05-14T19:05:18.077Z,61.20
2023-05-14T19:08:19.773Z,61.60
2023-05-14T19:11:21.935Z,61.90
2023-05-14T19:14:23.682Z,62.30
2023-05-14T19:17:25.526Z,62.60
2023-05-14T19:20:27.459Z,62.90
2023-05-14T19:23:31.066Z,63.20
2023-05-14T19:26:32.775Z,63.40
2023-05-14T19:29:36.736Z,63.60
2023-05-14T19:32:38.506Z,63.90
2023-05-14T19:35:40.188Z,64.00
2023-05-14T19:38:41.954Z,64.40
2023-05-14T19:41:45.851Z,64.60
2023-05-14T19:44:47.517Z,65.00
2023-05-14T19:47:49.237Z,65.30
2023-05-14T19:50:51.870Z,65.50
2023-05-14T19:53:53.551Z,65.80
2023-05-14T19:56:55.202Z,66.00
2023-05-14T19:59:56.919Z,66.40
2023-05-14T20:02:59.531Z,66.60
2023-05-14T20:06:01.854Z,66.80
2023-05-14T20:09:05.829Z,67.00
2023-05-14T20:12:07.992Z,67.30
2023-05-14T20:15:10.131Z,67.50
2023-05-14T20:18:11.873Z,67.70
2023-05-14T20:21:13.697Z,67.90
2023-05-14T20:24:15.421Z,68.10
2023-05-14T20:27:17.113Z,68.20
2023-05-14T20:30:19.425Z,68.50
2023-05-14T20:33:21.936Z,68.50
2023-05-14T20:36:24.312Z,68.70
2023-05-14T20:39:26.351Z,68.80
2023-05-14T20:42:28.119Z,69.00
2023-05-14T20:45:29.926Z,69.00
2023-05-14T20:48:31.561Z,69.10
2023-05-14T20:51:33.533Z,69.10
2023-05-14T20:54:35.200Z,69.20
2023-05-14T20:57:37.115Z,69.20
2023-05-14T21:00:39.237Z,69.30
2023-05-14T21:03:41.033Z,69.20
2023-05-14T21:06:42.859Z,69.20
2023-05-14T21:09:46.506Z,69.30
2023-05-14T21:12:48.296Z,69.20
2023-05-14T21:15:50.027Z,69.20
2023-05-14T21:18:51.783Z,69.00
2023-05-14T21:21:53.472Z,68.80
2023-05-14T21:24:55.606Z,68.60
2023-05-14T21:27:57.269Z,68.40
2023-05-14T21:30:59.053Z,68.20
2023-05-14T21:34:00.808Z,68.00
2023-05-14T21:37:02.444Z,67.70
